sensor_id;sensor_type;location;lat;lon;timestamp;P1;durP1;ratioP1;P2;durP2;ratioP2
76477;SDS011;65309;49.790;18.972;2024-03-02T00:01:17;21.92;;;13.52;;
76477;SDS011;65309;49.790;18.972;2024-03-02T00:06:22;21.10;;;12.55;;
76477;SDS011;65309;49.790;18.972;2024-03-02T00:11:25;22.17;;;12.27;;
76477;SDS011;65309;49.790;18.972;2024-03-02T00:16:29;22.70;;;11.00;;
76477;SDS011;65309;49.790;18.972;2024-03-02T00:21:33;15.60;;;9.75;;
76477;SDS011;65309;49.790;18.972;2024-03-02T00:26:36;17.83;;;9.98;;
76477;SDS011;65309;49.790;18.972;2024-03-02T00:31:38;20.23;;;10.32;;
76477;SDS011;65309;49.790;18.972;2024-03-02T00:36:43;14.35;;;9.20;;
76477;SDS011;65309;49.790;18.972;2024-03-02T00:41:45;15.32;;;8.30;;
76477;SDS011;65309;49.790;18.972;2024-03-02T00:46:47;12.60;;;7.38;;
76477;SDS011;65309;49.790;18.972;2024-03-02T00:51:51;15.40;;;7.43;;
76477;SDS011;65309;49.790;18.972;2024-03-02T00:56:55;8.65;;;5.95;;
76477;SDS011;65309;49.790;18.972;2024-03-02T01:02:00;12.48;;;6.68;;
76477;SDS011;65309;49.790;18.972;2024-03-02T01:07:04;8.10;;;6.85;;
76477;SDS011;65309;49.790;18.972;2024-03-02T01:12:06;9.38;;;6.10;;
76477;SDS011;65309;49.790;18.972;2024-03-02T01:17:09;10.10;;;5.65;;
76477;SDS011;65309;49.790;18.972;2024-03-02T01:22:12;9.25;;;5.68;;
76477;SDS011;65309;49.790;18.972;2024-03-02T01:27:15;11.52;;;6.78;;
76477;SDS011;65309;49.790;18.972;2024-03-02T01:32:17;10.85;;;6.47;;
76477;SDS011;65309;49.790;18.972;2024-03-02T01:37:21;10.50;;;5.75;;
76477;SDS011;65309;49.790;18.972;2024-03-02T01:42:23;9.30;;;5.97;;
76477;SDS011;65309;49.790;18.972;2024-03-02T01:47:25;8.40;;;5.70;;
76477;SDS011;65309;49.790;18.972;2024-03-02T01:52:30;12.05;;;6.25;;
76477;SDS011;65309;49.790;18.972;2024-03-02T01:57:32;8.90;;;5.15;;
76477;SDS011;65309;49.790;18.972;2024-03-02T02:02:35;9.10;;;5.40;;
76477;SDS011;65309;49.790;18.972;2024-03-02T02:07:38;10.60;;;5.93;;
76477;SDS011;65309;49.790;18.972;2024-03-02T02:12:41;9.80;;;6.13;;
76477;SDS011;65309;49.790;18.972;2024-03-02T02:17:44;8.02;;;5.13;;
76477;SDS011;65309;49.790;18.972;2024-03-02T02:22:55;7.18;;;5.35;;
76477;SDS011;65309;49.790;18.972;2024-03-02T02:27:57;7.47;;;5.25;;
76477;SDS011;65309;49.790;18.972;2024-03-02T02:33:00;8.02;;;4.60;;
76477;SDS011;65309;49.790;18.972;2024-03-02T02:38:04;7.82;;;4.95;;
76477;SDS011;65309;49.790;18.972;2024-03-02T02:43:07;9.70;;;4.43;;
76477;SDS011;65309;49.790;18.972;2024-03-02T02:48:09;7.25;;;4.72;;
76477;SDS011;65309;49.790;18.972;2024-03-02T02:53:13;7.32;;;5.00;;
76477;SDS011;65309;49.790;18.972;2024-03-02T02:58:15;8.43;;;5.15;;
76477;SDS011;65309;49.790;18.972;2024-03-02T03:03:17;8.00;;;5.00;;
76477;SDS011;65309;49.790;18.972;2024-03-02T03:08:21;8.85;;;4.82;;
76477;SDS011;65309;49.790;18.972;2024-03-02T03:13:25;5.78;;;4.78;;
76477;SDS011;65309;49.790;18.972;2024-03-02T03:18:27;8.90;;;5.07;;
76477;SDS011;65309;49.790;18.972;2024-03-02T03:23:31;9.27;;;4.95;;
76477;SDS011;65309;49.790;18.972;2024-03-02T03:28:33;6.80;;;4.78;;
76477;SDS011;65309;49.790;18.972;2024-03-02T03:33:35;10.25;;;5.65;;
76477;SDS011;65309;49.790;18.972;2024-03-02T03:38:39;7.35;;;5.50;;
76477;SDS011;65309;49.790;18.972;2024-03-02T03:43:41;5.93;;;4.60;;
76477;SDS011;65309;49.790;18.972;2024-03-02T03:48:43;10.70;;;6.28;;
76477;SDS011;65309;49.790;18.972;2024-03-02T03:53:47;9.40;;;6.60;;
76477;SDS011;65309;49.790;18.972;2024-03-02T03:58:49;10.27;;;7.13;;
76477;SDS011;65309;49.790;18.972;2024-03-02T04:03:51;9.40;;;6.22;;
76477;SDS011;65309;49.790;18.972;2024-03-02T04:08:55;6.70;;;5.20;;
76477;SDS011;65309;49.790;18.972;2024-03-02T04:13:57;9.00;;;6.80;;
76477;SDS011;65309;49.790;18.972;2024-03-02T04:18:59;9.25;;;6.50;;
76477;SDS011;65309;49.790;18.972;2024-03-02T04:24:03;8.68;;;5.47;;
76477;SDS011;65309;49.790;18.972;2024-03-02T04:29:06;10.23;;;6.50;;
76477;SDS011;65309;49.790;18.972;2024-03-02T04:34:08;8.88;;;5.50;;
76477;SDS011;65309;49.790;18.972;2024-03-02T04:39:12;8.88;;;5.57;;
76477;SDS011;65309;49.790;18.972;2024-03-02T04:44:14;9.82;;;6.38;;
76477;SDS011;65309;49.790;18.972;2024-03-02T04:49:16;10.27;;;4.65;;
76477;SDS011;65309;49.790;18.972;2024-03-02T04:54:20;9.63;;;5.88;;
76477;SDS011;65309;49.790;18.972;2024-03-02T04:59:22;10.52;;;6.15;;
76477;SDS011;65309;49.790;18.972;2024-03-02T05:04:24;9.73;;;6.63;;
76477;SDS011;65309;49.790;18.972;2024-03-02T05:09:28;12.18;;;6.05;;
76477;SDS011;65309;49.790;18.972;2024-03-02T05:14:30;6.95;;;5.63;;
76477;SDS011;65309;49.790;18.972;2024-03-02T05:19:32;8.63;;;6.28;;
76477;SDS011;65309;49.790;18.972;2024-03-02T05:24:35;7.60;;;5.35;;
76477;SDS011;65309;49.790;18.972;2024-03-02T05:29:38;12.57;;;6.93;;
76477;SDS011;65309;49.790;18.972;2024-03-02T05:34:40;7.68;;;5.85;;
76477;SDS011;65309;49.790;18.972;2024-03-02T05:39:44;8.88;;;5.47;;
76477;SDS011;65309;49.790;18.972;2024-03-02T05:44:46;8.10;;;5.97;;
76477;SDS011;65309;49.790;18.972;2024-03-02T05:49:49;8.80;;;6.18;;
76477;SDS011;65309;49.790;18.972;2024-03-02T05:54:53;10.18;;;5.88;;
76477;SDS011;65309;49.790;18.972;2024-03-02T05:59:55;6.55;;;5.05;;
76477;SDS011;65309;49.790;18.972;2024-03-02T06:04:58;8.20;;;5.95;;
76477;SDS011;65309;49.790;18.972;2024-03-02T06:10:01;9.65;;;5.90;;
76477;SDS011;65309;49.790;18.972;2024-03-02T06:15:05;9.75;;;5.53;;
76477;SDS011;65309;49.790;18.972;2024-03-02T06:20:08;12.75;;;5.82;;
76477;SDS011;65309;49.790;18.972;2024-03-02T06:25:12;8.32;;;5.70;;
76477;SDS011;65309;49.790;18.972;2024-03-02T06:30:15;9.85;;;5.97;;
76477;SDS011;65309;49.790;18.972;2024-03-02T06:35:17;7.93;;;5.45;;
76477;SDS011;65309;49.790;18.972;2024-03-02T06:40:21;10.27;;;5.20;;
76477;SDS011;65309;49.790;18.972;2024-03-02T06:45:23;7.95;;;5.10;;
76477;SDS011;65309;49.790;18.972;2024-03-02T06:50:25;13.32;;;6.28;;
76477;SDS011;65309;49.790;18.972;2024-03-02T06:55:29;13.82;;;6.43;;
76477;SDS011;65309;49.790;18.972;2024-03-02T07:00:31;9.25;;;5.55;;
76477;SDS011;65309;49.790;18.972;2024-03-02T07:05:34;9.95;;;6.43;;
76477;SDS011;65309;49.790;18.972;2024-03-02T07:10:38;7.13;;;5.32;;
76477;SDS011;65309;49.790;18.972;2024-03-02T07:15:40;10.00;;;5.82;;
76477;SDS011;65309;49.790;18.972;2024-03-02T07:21:05;9.65;;;6.20;;
76477;SDS011;65309;49.790;18.972;2024-03-02T07:26:09;7.22;;;5.25;;
76477;SDS011;65309;49.790;18.972;2024-03-02T07:31:15;11.70;;;5.35;;
76477;SDS011;65309;49.790;18.972;2024-03-02T07:36:17;11.80;;;5.60;;
76477;SDS011;65309;49.790;18.972;2024-03-02T07:41:22;12.38;;;6.65;;
76477;SDS011;65309;49.790;18.972;2024-03-02T07:46:24;7.47;;;5.93;;
76477;SDS011;65309;49.790;18.972;2024-03-02T07:51:27;11.02;;;6.72;;
76477;SDS011;65309;49.790;18.972;2024-03-02T07:56:30;11.82;;;7.15;;
76477;SDS011;65309;49.790;18.972;2024-03-02T08:01:33;12.80;;;8.32;;
76477;SDS011;65309;49.790;18.972;2024-03-02T08:06:35;17.05;;;10.30;;
76477;SDS011;65309;49.790;18.972;2024-03-02T08:11:39;16.60;;;9.77;;
76477;SDS011;65309;49.790;18.972;2024-03-02T08:16:41;18.13;;;8.93;;
76477;SDS011;65309;49.790;18.972;2024-03-02T08:21:43;12.88;;;7.88;;
76477;SDS011;65309;49.790;18.972;2024-03-02T08:26:48;12.85;;;8.55;;
76477;SDS011;65309;49.790;18.972;2024-03-02T08:31:50;14.65;;;9.38;;
76477;SDS011;65309;49.790;18.972;2024-03-02T08:36:52;14.23;;;10.07;;
76477;SDS011;65309;49.790;18.972;2024-03-02T08:41:55;20.23;;;11.15;;
76477;SDS011;65309;49.790;18.972;2024-03-02T08:46:57;16.15;;;10.23;;
76477;SDS011;65309;49.790;18.972;2024-03-02T08:52:00;16.33;;;9.60;;
76477;SDS011;65309;49.790;18.972;2024-03-02T08:57:04;21.38;;;10.30;;
76477;SDS011;65309;49.790;18.972;2024-03-02T09:02:07;21.80;;;13.20;;
76477;SDS011;65309;49.790;18.972;2024-03-02T09:07:09;22.40;;;9.10;;
76477;SDS011;65309;49.790;18.972;2024-03-02T09:12:12;22.50;;;11.65;;
76477;SDS011;65309;49.790;18.972;2024-03-02T09:17:15;17.08;;;10.48;;
76477;SDS011;65309;49.790;18.972;2024-03-02T09:22:17;30.20;;;13.32;;
76477;SDS011;65309;49.790;18.972;2024-03-02T09:27:20;19.85;;;11.73;;
76477;SDS011;65309;49.790;18.972;2024-03-02T09:32:23;18.90;;;11.15;;
76477;SDS011;65309;49.790;18.972;2024-03-02T09:37:25;25.60;;;13.18;;
76477;SDS011;65309;49.790;18.972;2024-03-02T09:42:30;21.15;;;12.25;;
76477;SDS011;65309;49.790;18.972;2024-03-02T09:47:32;35.33;;;16.38;;
76477;SDS011;65309;49.790;18.972;2024-03-02T09:52:34;20.60;;;13.45;;
76477;SDS011;65309;49.790;18.972;2024-03-02T09:57:39;18.02;;;11.07;;
76477;SDS011;65309;49.790;18.972;2024-03-02T10:02:44;24.92;;;15.73;;
76477;SDS011;65309;49.790;18.972;2024-03-02T10:07:50;19.63;;;12.60;;
76477;SDS011;65309;49.790;18.972;2024-03-02T10:13:04;27.60;;;17.42;;
76477;SDS011;65309;49.790;18.972;2024-03-02T10:18:08;25.23;;;14.80;;
76477;SDS011;65309;49.790;18.972;2024-03-02T10:23:12;28.00;;;15.40;;
76477;SDS011;65309;49.790;18.972;2024-03-02T10:28:17;32.00;;;18.30;;
76477;SDS011;65309;49.790;18.972;2024-03-02T10:33:20;33.58;;;21.77;;
76477;SDS011;65309;49.790;18.972;2024-03-02T10:43:25;39.17;;;20.85;;
76477;SDS011;65309;49.790;18.972;2024-03-02T10:48:28;34.40;;;19.95;;
76477;SDS011;65309;49.790;18.972;2024-03-02T10:53:31;44.13;;;26.60;;
76477;SDS011;65309;49.790;18.972;2024-03-02T10:58:35;29.45;;;18.05;;
76477;SDS011;65309;49.790;18.972;2024-03-02T11:03:39;36.75;;;20.58;;
76477;SDS011;65309;49.790;18.972;2024-03-02T11:08:43;33.78;;;19.23;;
76477;SDS011;65309;49.790;18.972;2024-03-02T11:13:53;30.73;;;19.90;;
76477;SDS011;65309;49.790;18.972;2024-03-02T11:18:59;43.20;;;25.25;;
76477;SDS011;65309;49.790;18.972;2024-03-02T11:24:17;31.73;;;16.58;;
76477;SDS011;65309;49.790;18.972;2024-03-02T11:29:46;131.18;;;59.65;;
76477;SDS011;65309;49.790;18.972;2024-03-02T11:34:49;82.03;;;43.92;;
76477;SDS011;65309;49.790;18.972;2024-03-02T11:39:52;47.40;;;24.35;;
76477;SDS011;65309;49.790;18.972;2024-03-02T11:44:56;26.80;;;17.35;;
76477;SDS011;65309;49.790;18.972;2024-03-02T11:49:58;23.70;;;15.93;;
76477;SDS011;65309;49.790;18.972;2024-03-02T11:55:01;20.30;;;13.65;;
76477;SDS011;65309;49.790;18.972;2024-03-02T12:00:16;24.73;;;15.02;;
76477;SDS011;65309;49.790;18.972;2024-03-02T12:05:19;29.00;;;15.90;;
76477;SDS011;65309;49.790;18.972;2024-03-02T12:10:21;19.02;;;13.05;;
76477;SDS011;65309;49.790;18.972;2024-03-02T12:15:26;16.35;;;11.40;;
76477;SDS011;65309;49.790;18.972;2024-03-02T12:20:29;14.23;;;10.45;;
76477;SDS011;65309;49.790;18.972;2024-03-02T12:25:32;10.65;;;7.63;;
76477;SDS011;65309;49.790;18.972;2024-03-02T12:30:36;14.55;;;9.15;;
76477;SDS011;65309;49.790;18.972;2024-03-02T12:35:40;14.75;;;10.77;;
76477;SDS011;65309;49.790;18.972;2024-03-02T12:40:43;23.63;;;13.32;;
76477;SDS011;65309;49.790;18.972;2024-03-02T12:45:46;37.58;;;20.00;;
76477;SDS011;65309;49.790;18.972;2024-03-02T12:50:48;16.77;;;11.48;;
76477;SDS011;65309;49.790;18.972;2024-03-02T13:01:06;39.63;;;18.88;;
76477;SDS011;65309;49.790;18.972;2024-03-02T13:06:11;50.30;;;23.10;;
76477;SDS011;65309;49.790;18.972;2024-03-02T13:11:13;26.75;;;15.93;;
76477;SDS011;65309;49.790;18.972;2024-03-02T13:16:17;30.98;;;16.58;;
76477;SDS011;65309;49.790;18.972;2024-03-02T13:21:23;33.17;;;18.50;;
76477;SDS011;65309;49.790;18.972;2024-03-02T13:26:25;24.45;;;13.65;;
76477;SDS011;65309;49.790;18.972;2024-03-02T13:31:29;16.88;;;10.82;;
76477;SDS011;65309;49.790;18.972;2024-03-02T13:36:31;19.20;;;11.25;;
76477;SDS011;65309;49.790;18.972;2024-03-02T13:41:33;18.23;;;11.60;;
76477;SDS011;65309;49.790;18.972;2024-03-02T13:46:37;27.85;;;11.38;;
76477;SDS011;65309;49.790;18.972;2024-03-02T13:51:39;22.80;;;12.93;;
76477;SDS011;65309;49.790;18.972;2024-03-02T14:01:45;19.50;;;11.43;;
76477;SDS011;65309;49.790;18.972;2024-03-02T14:06:47;23.80;;;11.65;;
76477;SDS011;65309;49.790;18.972;2024-03-02T14:11:50;16.67;;;11.20;;
76477;SDS011;65309;49.790;18.972;2024-03-02T14:16:54;18.08;;;12.63;;
76477;SDS011;65309;49.790;18.972;2024-03-02T14:22:06;19.80;;;12.15;;
76477;SDS011;65309;49.790;18.972;2024-03-02T14:27:08;23.45;;;12.48;;
76477;SDS011;65309;49.790;18.972;2024-03-02T14:32:27;21.60;;;13.25;;
76477;SDS011;65309;49.790;18.972;2024-03-02T14:37:29;20.25;;;12.88;;
76477;SDS011;65309;49.790;18.972;2024-03-02T14:42:32;21.52;;;11.98;;
76477;SDS011;65309;49.790;18.972;2024-03-02T14:47:35;19.95;;;12.35;;
76477;SDS011;65309;49.790;18.972;2024-03-02T14:52:38;22.35;;;13.82;;
76477;SDS011;65309;49.790;18.972;2024-03-02T14:57:40;24.25;;;14.25;;
76477;SDS011;65309;49.790;18.972;2024-03-02T15:02:44;37.58;;;20.10;;
76477;SDS011;65309;49.790;18.972;2024-03-02T15:07:46;51.35;;;23.25;;
76477;SDS011;65309;49.790;18.972;2024-03-02T15:12:48;43.58;;;23.35;;
76477;SDS011;65309;49.790;18.972;2024-03-02T15:17:52;33.05;;;20.08;;
76477;SDS011;65309;49.790;18.972;2024-03-02T15:22:54;25.88;;;16.20;;
76477;SDS011;65309;49.790;18.972;2024-03-02T15:27:56;39.60;;;22.10;;
76477;SDS011;65309;49.790;18.972;2024-03-02T15:33:00;29.23;;;17.70;;
76477;SDS011;65309;49.790;18.972;2024-03-02T15:38:02;34.10;;;20.08;;
76477;SDS011;65309;49.790;18.972;2024-03-02T15:43:08;40.17;;;25.20;;
76477;SDS011;65309;49.790;18.972;2024-03-02T15:48:12;37.40;;;21.85;;
76477;SDS011;65309;49.790;18.972;2024-03-02T15:53:14;43.17;;;23.35;;
76477;SDS011;65309;49.790;18.972;2024-03-02T15:58:16;51.67;;;27.20;;
76477;SDS011;65309;49.790;18.972;2024-03-02T16:03:20;47.70;;;25.98;;
76477;SDS011;65309;49.790;18.972;2024-03-02T16:08:22;61.72;;;32.40;;
76477;SDS011;65309;49.790;18.972;2024-03-02T16:13:24;27.25;;;17.00;;
76477;SDS011;65309;49.790;18.972;2024-03-02T16:18:27;26.35;;;16.25;;
76477;SDS011;65309;49.790;18.972;2024-03-02T16:23:30;26.58;;;15.35;;
76477;SDS011;65309;49.790;18.972;2024-03-02T16:28:32;27.73;;;18.60;;
76477;SDS011;65309;49.790;18.972;2024-03-02T16:33:35;33.28;;;17.13;;
76477;SDS011;65309;49.790;18.972;2024-03-02T16:38:37;33.72;;;21.30;;
76477;SDS011;65309;49.790;18.972;2024-03-02T16:43:40;31.08;;;18.65;;
76477;SDS011;65309;49.790;18.972;2024-03-02T16:48:45;39.13;;;23.17;;
76477;SDS011;65309;49.790;18.972;2024-03-02T16:53:47;39.30;;;21.85;;
76477;SDS011;65309;49.790;18.972;2024-03-02T16:58:49;33.90;;;21.33;;
76477;SDS011;65309;49.790;18.972;2024-03-02T17:03:52;30.48;;;19.13;;
76477;SDS011;65309;49.790;18.972;2024-03-02T17:08:54;32.53;;;19.15;;
76477;SDS011;65309;49.790;18.972;2024-03-02T17:13:57;37.15;;;21.88;;
76477;SDS011;65309;49.790;18.972;2024-03-02T17:19:01;42.13;;;26.48;;
76477;SDS011;65309;49.790;18.972;2024-03-02T17:24:04;40.22;;;22.58;;
76477;SDS011;65309;49.790;18.972;2024-03-02T17:39:12;50.00;;;22.88;;
76477;SDS011;65309;49.790;18.972;2024-03-02T17:44:14;39.53;;;24.35;;
76477;SDS011;65309;49.790;18.972;2024-03-02T17:49:17;39.20;;;22.40;;
76477;SDS011;65309;49.790;18.972;2024-03-02T17:54:21;47.33;;;23.42;;
76477;SDS011;65309;49.790;18.972;2024-03-02T17:59:23;51.53;;;24.45;;
76477;SDS011;65309;49.790;18.972;2024-03-02T18:04:27;64.65;;;28.70;;
76477;SDS011;65309;49.790;18.972;2024-03-02T18:09:30;69.75;;;26.85;;
76477;SDS011;65309;49.790;18.972;2024-03-02T18:14:32;68.35;;;28.42;;
76477;SDS011;65309;49.790;18.972;2024-03-02T18:19:39;50.80;;;22.92;;
76477;SDS011;65309;49.790;18.972;2024-03-02T18:24:41;46.13;;;22.70;;
76477;SDS011;65309;49.790;18.972;2024-03-02T18:29:43;26.92;;;17.73;;
76477;SDS011;65309;49.790;18.972;2024-03-02T18:34:47;31.65;;;18.95;;
76477;SDS011;65309;49.790;18.972;2024-03-02T18:39:50;28.90;;;17.05;;
76477;SDS011;65309;49.790;18.972;2024-03-02T18:44:52;31.02;;;18.27;;
76477;SDS011;65309;49.790;18.972;2024-03-02T18:54:59;38.78;;;19.17;;
76477;SDS011;65309;49.790;18.972;2024-03-02T19:00:05;35.63;;;22.27;;
76477;SDS011;65309;49.790;18.972;2024-03-02T19:05:16;56.88;;;33.28;;
76477;SDS011;65309;49.790;18.972;2024-03-02T19:10:19;57.05;;;35.90;;
76477;SDS011;65309;49.790;18.972;2024-03-02T19:15:22;63.55;;;34.67;;
76477;SDS011;65309;49.790;18.972;2024-03-02T19:20:26;56.13;;;32.83;;
76477;SDS011;65309;49.790;18.972;2024-03-02T19:25:28;55.60;;;32.67;;
76477;SDS011;65309;49.790;18.972;2024-03-02T19:30:30;53.70;;;30.42;;
76477;SDS011;65309;49.790;18.972;2024-03-02T19:35:34;69.50;;;35.53;;
76477;SDS011;65309;49.790;18.972;2024-03-02T19:40:36;61.13;;;36.28;;
76477;SDS011;65309;49.790;18.972;2024-03-02T19:45:39;64.03;;;35.58;;
76477;SDS011;65309;49.790;18.972;2024-03-02T19:50:42;51.22;;;28.85;;
76477;SDS011;65309;49.790;18.972;2024-03-02T19:55:45;40.72;;;23.52;;
76477;SDS011;65309;49.790;18.972;2024-03-02T20:00:48;57.03;;;28.90;;
76477;SDS011;65309;49.790;18.972;2024-03-02T20:05:52;44.78;;;25.02;;
76477;SDS011;65309;49.790;18.972;2024-03-02T20:10:55;36.50;;;20.80;;
76477;SDS011;65309;49.790;18.972;2024-03-02T20:15:57;40.47;;;22.83;;
76477;SDS011;65309;49.790;18.972;2024-03-02T20:21:02;47.33;;;24.60;;
76477;SDS011;65309;49.790;18.972;2024-03-02T20:26:05;24.13;;;13.48;;
76477;SDS011;65309;49.790;18.972;2024-03-02T20:31:07;36.63;;;19.77;;
76477;SDS011;65309;49.790;18.972;2024-03-02T20:36:13;27.77;;;17.88;;
76477;SDS011;65309;49.790;18.972;2024-03-02T20:41:18;25.40;;;15.95;;
76477;SDS011;65309;49.790;18.972;2024-03-02T20:46:22;29.95;;;16.08;;
76477;SDS011;65309;49.790;18.972;2024-03-02T20:51:25;19.77;;;11.38;;
76477;SDS011;65309;49.790;18.972;2024-03-02T20:56:31;21.38;;;13.68;;
76477;SDS011;65309;49.790;18.972;2024-03-02T21:01:37;20.40;;;11.07;;
76477;SDS011;65309;49.790;18.972;2024-03-02T21:06:40;19.42;;;11.80;;
76477;SDS011;65309;49.790;18.972;2024-03-02T21:11:43;17.92;;;9.65;;
76477;SDS011;65309;49.790;18.972;2024-03-02T21:16:48;16.50;;;8.20;;
76477;SDS011;65309;49.790;18.972;2024-03-02T21:21:52;9.40;;;5.15;;
76477;SDS011;65309;49.790;18.972;2024-03-02T21:26:57;14.80;;;8.40;;
76477;SDS011;65309;49.790;18.972;2024-03-02T21:31:59;8.10;;;4.93;;
76477;SDS011;65309;49.790;18.972;2024-03-02T21:37:03;12.00;;;5.28;;
76477;SDS011;65309;49.790;18.972;2024-03-02T21:42:05;8.82;;;4.93;;
76477;SDS011;65309;49.790;18.972;2024-03-02T21:47:08;11.82;;;5.47;;
76477;SDS011;65309;49.790;18.972;2024-03-02T21:52:13;13.48;;;7.78;;
76477;SDS011;65309;49.790;18.972;2024-03-02T21:57:15;7.10;;;4.40;;
76477;SDS011;65309;49.790;18.972;2024-03-02T22:02:23;27.63;;;11.38;;
76477;SDS011;65309;49.790;18.972;2024-03-02T22:07:27;10.27;;;5.82;;
76477;SDS011;65309;49.790;18.972;2024-03-02T22:12:29;12.88;;;7.75;;
76477;SDS011;65309;49.790;18.972;2024-03-02T22:17:32;10.02;;;6.35;;
76477;SDS011;65309;49.790;18.972;2024-03-02T22:22:35;7.97;;;4.70;;
76477;SDS011;65309;49.790;18.972;2024-03-02T22:27:41;7.70;;;4.63;;
76477;SDS011;65309;49.790;18.972;2024-03-02T22:32:44;13.23;;;8.80;;
76477;SDS011;65309;49.790;18.972;2024-03-02T22:37:48;58.88;;;20.40;;
76477;SDS011;65309;49.790;18.972;2024-03-02T22:42:50;11.27;;;6.47;;
76477;SDS011;65309;49.790;18.972;2024-03-02T22:47:52;19.17;;;8.40;;
76477;SDS011;65309;49.790;18.972;2024-03-02T22:52:57;14.38;;;7.28;;
76477;SDS011;65309;49.790;18.972;2024-03-02T22:58:00;9.32;;;5.45;;
76477;SDS011;65309;49.790;18.972;2024-03-02T23:03:02;21.08;;;9.82;;
76477;SDS011;65309;49.790;18.972;2024-03-02T23:08:07;29.40;;;9.93;;
76477;SDS011;65309;49.790;18.972;2024-03-02T23:13:09;16.80;;;7.72;;
76477;SDS011;65309;49.790;18.972;2024-03-02T23:18:11;17.65;;;7.20;;
76477;SDS011;65309;49.790;18.972;2024-03-02T23:23:15;18.92;;;7.57;;
76477;SDS011;65309;49.790;18.972;2024-03-02T23:28:17;27.15;;;9.50;;
76477;SDS011;65309;49.790;18.972;2024-03-02T23:33:20;16.45;;;7.13;;
76477;SDS011;65309;49.790;18.972;2024-03-02T23:38:24;14.13;;;6.70;;
76477;SDS011;65309;49.790;18.972;2024-03-02T23:43:26;6.80;;;4.25;;
76477;SDS011;65309;49.790;18.972;2024-03-02T23:48:28;6.20;;;4.13;;
76477;SDS011;65309;49.790;18.972;2024-03-02T23:53:32;5.22;;;3.33;;
76477;SDS011;65309;49.790;18.972;2024-03-02T23:58:34;7.20;;;2.90;;
